Alfredo Chaves, Brazil
Current Conditions -  °F | °C
As of 10:00 PM on Wednesday 22 Oct 2014 (Local Time) from SBVT Reporting Station
Broken Clouds Broken Clouds  
Wind Chill: 73°   Ceiling: 8000
Heat Index: 73°   Visibility: 6mi
Dew Point: 59°   Wind: 9mph
Humidity: 61%   Direction: 220°SW
Pressure: 30.18"   Gusts: NA
Location:  20.64°S, 40.75°W
Report Text: SBVT 230000Z 22008KT 9999 FEW040 BKN080 23/15 Q1022
Loading
Personal Weather Stations






























Interactive Weather Map
Tropical Storm Tracking
New forecast layout! Learn more

10-Day Weather Forecast

Advertisements
Track Severe Weather on mobile